Terminal Aerodrome Forecast
Issued by NWS Cleveland, OH

Home | Current Version | Previous Version | Graphics & Text | Print | Product List | Glossary On
Versions: 1 2 3 4 5 6 7 8 9 10 11 12 13 14 15 16 17 18 19 20
000
FTUS41 KCLE 282355 CCA
TAFYNG
TAF COR
KYNG 282355Z 2900/2924 08010KT P6SM VCTS SCT050CB BKN120
     FM290200 08010KT P6SM VCSH SCT050 BKN120
     FM290500 09010KT 5SM -RA BR OVC025
     FM291400 10010KT P6SM VCSH OVC035
     FM292100 10014KT 3SM -RA BR SCT015 OVC030=

USA.gov is the U.S. government's official web portal to all federal, state and local government web resources and services.